Time;durP1;ratioP1;P1;durP2;ratioP2;P2;SDS_P1;SDS_P2;PMS_P1;PMS_P2;Temp;Humidity;BMP_temperature;BMP_pressure;BME280_temperature;BME280_humidity;BME280_pressure;Samples;Min_cycle;Max_cycle;Signal;HPM_P1;HPM_P2
2022/07/20 00:00:31;;;;;;;;;;;;;;;27.76;45.74;100895.53;1052452;28;658;-64
2022/07/20 00:01:21;;;;;;;;;;;;;;;27.75;45.11;100899.34;1048384;28;665;-64
2022/07/20 00:02:12;;;;;;;;;;;;;;;27.69;45.70;100898.28;1046713;28;643;-64
2022/07/20 00:03:02;;;;;;;;;;;;;;;27.72;45.62;100900.59;1047440;28;595;-64
2022/07/20 00:03:53;;;;;;;;;;;;;;;27.73;44.44;100890.47;1052460;28;638;-64
2022/07/20 00:04:43;;;;;;;;;;;;;;;27.73;44.71;100896.81;1052374;28;717;-65
2022/07/20 00:05:33;;;;;;;;;;;;;;;27.73;45.22;100894.06;1048496;28;680;-64
2022/07/20 00:06:24;;;;;;;;;;;;;;;27.73;45.41;100905.03;1047972;28;697;-64
2022/07/20 00:07:14;;;;;;;;;;;;;;;27.67;45.26;100902.25;1047662;28;1563;-64
2022/07/20 00:08:05;;;;;;;;;;;;;;;27.72;45.32;100900.59;1052186;28;645;-64
2022/07/20 00:11:20;;;;;;;;;;;;;;;27.65;45.23;100894.25;1051428;28;650;-64
2022/07/20 00:12:10;;;;;;;;;;;;;;;27.58;44.58;100896.16;1051037;28;792;-64
2022/07/20 00:13:00;;;;;;;;;;;;;;;27.59;44.43;100895.09;1051294;28;639;-64
2022/07/20 00:13:52;;;;;;;;;;;;;;;27.60;44.25;100891.28;1047046;28;681;-64
2022/07/20 00:14:42;;;;;;;;;;;;;;;27.63;43.74;100896.34;1048401;28;709;-64
2022/07/20 00:15:33;;;;;;;;;;;;;;;27.64;43.81;100893.41;1051968;28;638;-64
2022/07/20 00:16:23;;;;;;;;;;;;;;;27.63;44.29;100890.88;1047251;28;638;-64
2022/07/20 00:17:14;;;;;;;;;;;;;;;27.63;44.73;100899.94;1044329;28;678;-64
2022/07/20 00:18:04;;;;;;;;;;;;;;;27.63;44.80;100901.84;1048257;28;690;-64
2022/07/20 00:18:55;;;;;;;;;;;;;;;27.60;42.57;100894.88;1047600;28;1990;-64
2022/07/20 00:19:45;;;;;;;;;;;;;;;27.62;42.99;100902.88;1052325;28;704;-63
2022/07/20 00:20:36;;;;;;;;;;;;;;;27.55;43.03;100894.66;1050728;28;772;-63
2022/07/20 00:21:26;;;;;;;;;;;;;;;27.59;43.55;100895.94;1051717;28;658;-63
2022/07/20 00:22:17;;;;;;;;;;;;;;;27.64;44.04;100898.03;1050934;28;774;-63
2022/07/20 00:23:07;;;;;;;;;;;;;;;27.62;44.59;100908.38;1051267;28;741;-63
2022/07/20 00:23:58;;;;;;;;;;;;;;;27.63;44.54;100896.34;1046938;28;650;-63
2022/07/20 00:24:48;;;;;;;;;;;;;;;27.58;44.43;100898.91;1048424;28;670;-63
2022/07/20 00:25:39;;;;;;;;;;;;;;;27.59;44.37;100898.66;1052070;28;666;-63
2022/07/20 00:26:29;;;;;;;;;;;;;;;27.56;43.44;100901.81;1051175;28;666;-63
2022/07/20 00:27:20;;;;;;;;;;;;;;;27.53;43.79;100895.91;1050994;28;634;-63
2022/07/20 00:28:10;;;;;;;;;;;;;;;27.58;43.42;100898.91;1051024;28;709;-63
2022/07/20 00:29:01;;;;;;;;;;;;;;;27.58;42.79;100904.38;1050792;28;710;-63
2022/07/20 00:29:51;;;;;;;;;;;;;;;27.47;42.94;100905.78;1050994;28;661;-63
2022/07/20 00:30:42;;;;;;;;;;;;;;;27.55;43.27;100904.75;1051302;28;662;-63
2022/07/20 00:31:32;;;;;;;;;;;;;;;27.53;42.67;100898.66;1050711;28;634;-64
2022/07/20 00:32:22;;;;;;;;;;;;;;;27.45;42.51;100904.31;1051226;28;674;-63
2022/07/20 00:33:13;;;;;;;;;;;;;;;27.49;43.47;100902.84;1050943;28;626;-66
2022/07/20 00:34:03;;;;;;;;;;;;;;;27.54;42.47;100897.59;1051240;28;741;-64
2022/07/20 00:34:54;;;;;;;;;;;;;;;27.53;42.39;100898.66;1050805;28;649;-65
2022/07/20 00:35:44;;;;;;;;;;;;;;;27.40;41.85;100894.00;1051343;28;642;-65
2022/07/20 00:36:35;;;;;;;;;;;;;;;27.38;42.33;100895.25;1050885;28;710;-65
2022/07/20 00:37:25;;;;;;;;;;;;;;;27.45;42.37;100902.41;1050865;28;1570;-65
2022/07/20 00:38:16;;;;;;;;;;;;;;;27.46;42.30;100893.16;1051200;28;1440;-64
2022/07/20 00:39:06;;;;;;;;;;;;;;;27.43;42.26;100895.47;1047304;28;1957;-64
2022/07/20 00:39:56;;;;;;;;;;;;;;;27.49;42.37;100891.91;1047602;28;682;-64
2022/07/20 00:40:47;;;;;;;;;;;;;;;27.54;42.61;100894.88;1047219;28;710;-64
2022/07/20 00:41:37;;;;;;;;;;;;;;;27.53;43.03;100895.91;1047341;28;627;-64
2022/07/20 00:42:28;;;;;;;;;;;;;;;27.51;42.92;100895.28;1047120;28;627;-64
2022/07/20 00:43:18;;;;;;;;;;;;;;;27.45;43.33;100896.09;1047303;28;875;-64
2022/07/20 00:44:09;;;;;;;;;;;;;;;27.48;41.71;100892.94;1052395;28;740;-64
2022/07/20 00:44:59;;;;;;;;;;;;;;;27.41;42.24;100897.59;1051783;28;629;-63
2022/07/20 00:45:49;;;;;;;;;;;;;;;27.43;41.83;100889.97;1047886;28;705;-63
2022/07/20 00:46:40;;;;;;;;;;;;;;;27.39;42.52;100888.75;1047263;28;717;-64
2022/07/20 00:47:30;;;;;;;;;;;;;;;27.42;43.20;100893.78;1047255;28;666;-63
2022/07/20 00:48:21;;;;;;;;;;;;;;;27.46;42.34;100890.41;1047205;28;703;-63
2022/07/20 00:49:11;;;;;;;;;;;;;;;27.50;42.82;100890.84;1047355;28;635;-63
2022/07/20 00:50:02;;;;;;;;;;;;;;;27.51;42.67;100887.06;1047483;28;718;-63
2022/07/20 00:50:52;;;;;;;;;;;;;;;27.50;42.79;100890.84;1054492;28;1164;-63
2022/07/20 00:51:43;;;;;;;;;;;;;;;27.46;41.33;100884.09;1056091;28;685;-64
2022/07/20 00:52:33;;;;;;;;;;;;;;;27.39;41.41;100888.75;1051751;28;737;-64
2022/07/20 00:53:23;;;;;;;;;;;;;;;27.40;41.77;100891.28;1051196;28;967;-64
2022/07/20 00:54:14;;;;;;;;;;;;;;;27.37;41.67;100888.94;1050806;28;658;-63
2022/07/20 00:55:04;;;;;;;;;;;;;;;27.36;42.11;100889.16;1051073;28;583;-63
2022/07/20 00:55:55;;;;;;;;;;;;;;;27.37;42.21;100885.38;1050713;28;658;-64
2022/07/20 00:56:45;;;;;;;;;;;;;;;27.33;40.96;100890.41;1051048;28;639;-64
2022/07/20 00:57:35;;;;;;;;;;;;;;;27.37;41.18;100890.84;1051291;28;642;-64
2022/07/20 00:58:26;;;;;;;;;;;;;;;27.31;41.41;100885.13;1050903;28;650;-64
2022/07/20 00:59:16;;;;;;;;;;;;;;;27.33;42.62;100890.41;1051025;28;1918;-64
2022/07/20 01:00:07;;;;;;;;;;;;;;;27.34;42.39;100889.34;1050347;28;706;-64
2022/07/20 01:00:58;;;;;;;;;;;;;;;27.41;41.89;100890.19;1050772;28;1064;-64
2022/07/20 01:01:48;;;;;;;;;;;;;;;27.38;40.99;100885.16;1051040;28;626;-64
2022/07/20 01:02:39;;;;;;;;;;;;;;;27.40;42.42;100901.38;1051132;28;702;-63
2022/07/20 01:03:29;;;;;;;;;;;;;;;27.39;42.04;100888.75;1050955;28;586;-64
2022/07/20 01:04:20;;;;;;;;;;;;;;;27.41;41.46;100892.13;1051210;28;669;-63
2022/07/20 01:05:13;;;;;;;;;;;;;;;27.42;42.35;100893.78;1050876;28;629;-63
2022/07/20 01:06:04;;;;;;;;;;;;;;;27.42;43.59;100896.50;1050758;28;618;-63
2022/07/20 01:06:54;;;;;;;;;;;;;;;27.44;43.07;100895.25;1051115;28;759;-63
2022/07/20 01:07:45;;;;;;;;;;;;;;;27.46;42.54;100906.00;1048133;28;1098;-63
2022/07/20 01:08:35;;;;;;;;;;;;;;;27.46;43.40;100916.94;1051091;28;634;-63
2022/07/20 01:09:26;;;;;;;;;;;;;;;26.87;39.50;100928.56;1052906;28;732;-63
2022/07/20 01:10:16;;;;;;;;;;;;;;;26.87;42.76;100909.41;1046800;28;724;-62
2022/07/20 01:11:06;;;;;;;;;;;;;;;26.99;41.68;100899.59;1047365;28;708;-65
2022/07/20 01:11:57;;;;;;;;;;;;;;;27.01;41.66;100897.50;1047179;28;666;-63
2022/07/20 01:12:48;;;;;;;;;;;;;;;27.08;41.41;100892.88;1047410;28;655;-65
2022/07/20 01:13:38;;;;;;;;;;;;;;;27.10;41.31;100890.78;1047538;28;768;-64
2022/07/20 01:14:29;;;;;;;;;;;;;;;27.07;40.71;100885.72;1047066;28;706;-62
2022/07/20 01:15:19;;;;;;;;;;;;;;;27.12;41.72;100893.31;1046834;28;705;-62
2022/07/20 01:16:10;;;;;;;;;;;;;;;27.09;41.21;100893.72;1047461;28;658;-65
2022/07/20 01:17:00;;;;;;;;;;;;;;;27.03;41.66;100902.75;1047041;28;631;-65
2022/07/20 01:17:50;;;;;;;;;;;;;;;26.99;41.71;100902.31;1047333;28;1084;-62
2022/07/20 01:18:41;;;;;;;;;;;;;;;27.11;41.64;100906.13;1047124;28;655;-64
2022/07/20 01:19:31;;;;;;;;;;;;;;;27.10;40.40;100901.72;1047162;28;705;-64
2022/07/20 01:20:22;;;;;;;;;;;;;;;27.04;41.28;100915.41;1047136;28;697;-64
2022/07/20 01:21:12;;;;;;;;;;;;;;;26.73;38.70;100933.09;1047291;28;642;-65
2022/07/20 01:22:03;;;;;;;;;;;;;;;26.41;38.54;100934.59;1047383;28;775;-65
2022/07/20 01:22:53;;;;;;;;;;;;;;;26.40;39.84;100926.59;1047283;28;654;-62
2022/07/20 01:23:43;;;;;;;;;;;;;;;26.46;39.54;100907.53;1046975;28;670;-62
2022/07/20 01:24:34;;;;;;;;;;;;;;;26.69;40.57;100895.44;1046730;28;758;-62
2022/07/20 01:25:24;;;;;;;;;;;;;;;26.86;40.57;100902.25;1051259;28;713;-63
2022/07/20 01:26:15;;;;;;;;;;;;;;;26.98;39.96;100903.38;1052295;28;797;-63
2022/07/20 01:27:05;;;;;;;;;;;;;;;27.05;41.53;100898.75;1046829;28;816;-66
2022/07/20 01:27:56;;;;;;;;;;;;;;;27.11;41.31;100897.94;1046461;28;646;-63
2022/07/20 01:28:46;;;;;;;;;;;;;;;27.16;40.15;100900.91;1047352;28;721;-64
2022/07/20 01:29:37;;;;;;;;;;;;;;;27.07;40.90;100896.66;1048441;28;1638;-64
2022/07/20 01:30:27;;;;;;;;;;;;;;;27.14;41.25;100893.94;1047189;28;663;-63
2022/07/20 01:31:17;;;;;;;;;;;;;;;27.11;41.92;100895.19;1047268;28;737;-64
2022/07/20 01:32:08;;;;;;;;;;;;;;;27.10;41.06;100889.94;1052256;28;661;-63
2022/07/20 01:32:58;;;;;;;;;;;;;;;27.15;40.78;100885.53;1052578;28;693;-63
2022/07/20 01:33:49;;;;;;;;;;;;;;;27.11;40.44;100886.16;1048556;28;665;-64
2022/07/20 01:34:39;;;;;;;;;;;;;;;27.15;40.75;100888.28;1047858;28;654;-64
2022/07/20 01:35:29;;;;;;;;;;;;;;;26.85;40.92;100897.84;1048752;28;697;-64
2022/07/20 01:36:20;;;;;;;;;;;;;;;26.91;41.87;100894.25;1047732;28;660;-64
2022/07/20 01:37:10;;;;;;;;;;;;;;;27.05;42.00;100893.28;1048688;28;703;-65
2022/07/20 01:38:01;;;;;;;;;;;;;;;27.13;42.02;100889.53;1049219;28;1637;-64
2022/07/20 01:38:52;;;;;;;;;;;;;;;27.16;42.19;100878.16;1051582;28;653;-65
2022/07/20 01:39:42;;;;;;;;;;;;;;;27.20;42.81;100873.97;1052129;28;689;-65
2022/07/20 01:40:32;;;;;;;;;;;;;;;27.23;42.31;100874.38;1051861;28;662;-65
2022/07/20 01:41:23;;;;;;;;;;;;;;;27.25;42.32;100877.75;1051473;28;619;-64
2022/07/20 01:42:13;;;;;;;;;;;;;;;27.27;42.91;100880.28;1051625;28;630;-65
2022/07/20 01:43:04;;;;;;;;;;;;;;;27.14;42.33;100881.09;1051922;28;657;-64
2022/07/20 01:43:54;;;;;;;;;;;;;;;27.02;41.93;100881.94;1051194;28;634;-65
2022/07/20 01:44:44;;;;;;;;;;;;;;;27.01;43.04;100878.34;1047833;28;733;-65
2022/07/20 01:45:35;;;;;;;;;;;;;;;27.07;43.29;100888.44;1048868;28;655;-65
2022/07/20 01:46:25;;;;;;;;;;;;;;;27.12;43.31;100885.94;1052770;28;669;-65
2022/07/20 01:47:16;;;;;;;;;;;;;;;27.18;43.25;100890.59;1051339;28;986;-64
2022/07/20 01:48:06;;;;;;;;;;;;;;;27.20;43.23;100873.97;1051633;28;686;-65
2022/07/20 01:48:57;;;;;;;;;;;;;;;27.20;44.04;100874.81;1051825;28;741;-64
2022/07/20 01:49:47;;;;;;;;;;;;;;;27.14;43.95;100864.69;1051540;28;689;-64
2022/07/20 01:50:38;;;;;;;;;;;;;;;27.17;43.02;100874.38;1051768;28;1262;-64
2022/07/20 01:51:28;;;;;;;;;;;;;;;27.17;42.53;100880.69;1051420;28;746;-64
2022/07/20 01:52:18;;;;;;;;;;;;;;;27.20;43.06;100876.72;1051835;28;744;-64
2022/07/20 01:53:09;;;;;;;;;;;;;;;27.23;43.24;100879.84;1051338;28;721;-64
2022/07/20 01:53:59;;;;;;;;;;;;;;;27.25;43.79;100875.00;1047886;28;700;-64
2022/07/20 01:54:50;;;;;;;;;;;;;;;27.23;44.43;100873.56;1049313;28;763;-64
2022/07/20 01:55:40;;;;;;;;;;;;;;;27.16;43.16;100870.81;1051979;28;631;-64
2022/07/20 01:56:30;;;;;;;;;;;;;;;27.16;43.12;100868.06;1051863;28;695;-65
2022/07/20 01:57:21;;;;;;;;;;;;;;;27.18;42.89;100871.44;1051318;28;607;-64
2022/07/20 01:58:11;;;;;;;;;;;;;;;27.10;42.82;100863.41;1051296;28;736;-64
2022/07/20 01:59:02;;;;;;;;;;;;;;;27.09;43.04;100867.19;1052540;28;1893;-65
2022/07/20 01:59:53;;;;;;;;;;;;;;;27.12;43.08;100864.06;1051356;28;1543;-65
2022/07/20 02:00:43;;;;;;;;;;;;;;;27.14;43.47;100869.31;1052125;28;643;-65
2022/07/20 02:01:34;;;;;;;;;;;;;;;27.12;43.53;100865.94;1051638;28;678;-64
2022/07/20 02:02:24;;;;;;;;;;;;;;;27.16;43.56;100873.53;1051389;28;631;-64
2022/07/20 02:03:14;;;;;;;;;;;;;;;27.18;44.65;100868.72;1047825;28;686;-64
2022/07/20 02:04:05;;;;;;;;;;;;;;;27.20;44.05;100865.75;1048798;28;670;-65
2022/07/20 02:04:55;;;;;;;;;;;;;;;27.19;43.95;100873.13;1052825;28;646;-65
2022/07/20 02:05:46;;;;;;;;;;;;;;;27.17;44.52;100871.66;1051241;28;659;-65
2022/07/20 02:06:36;;;;;;;;;;;;;;;27.16;44.43;100865.34;1047735;28;615;-65
2022/07/20 02:07:27;;;;;;;;;;;;;;;27.17;44.35;100864.28;1049760;28;1148;-65
2022/07/20 02:08:17;;;;;;;;;;;;;;;27.14;44.53;100867.44;1052641;28;650;-65
2022/07/20 02:09:08;;;;;;;;;;;;;;;27.19;44.77;100869.56;1051779;28;741;-64
2022/07/20 02:09:58;;;;;;;;;;;;;;;27.15;44.59;100876.47;1051350;28;662;-64
2022/07/20 02:10:48;;;;;;;;;;;;;;;27.15;44.20;100871.84;1051798;28;741;-64
2022/07/20 02:11:39;;;;;;;;;;;;;;;27.12;44.41;100872.25;1051258;28;733;-64
2022/07/20 02:12:29;;;;;;;;;;;;;;;27.11;44.80;100880.66;1051499;28;697;-65
2022/07/20 02:13:20;;;;;;;;;;;;;;;27.13;44.92;100884.03;1047896;28;678;-64
2022/07/20 02:14:10;;;;;;;;;;;;;;;27.10;45.03;100876.25;1048084;28;634;-64
2022/07/20 02:15:01;;;;;;;;;;;;;;;27.13;45.35;100873.09;1052724;28;594;-64
2022/07/20 02:17:00;;;;;;;;;;;;;;;27.19;45.22;100891.44;1051541;28;682;-63
2022/07/20 02:17:51;;;;;;;;;;;;;;;27.18;45.05;100885.13;1051807;28;666;-63
2022/07/20 02:18:41;;;;;;;;;;;;;;;27.14;45.17;100886.56;1051487;28;697;-63
2022/07/20 02:19:31;;;;;;;;;;;;;;;27.16;45.73;100879.00;1051643;28;681;-63
2022/07/20 02:20:22;;;;;;;;;;;;;;;27.14;45.83;100892.06;1051259;28;642;-63
2022/07/20 02:21:12;;;;;;;;;;;;;;;27.14;45.77;100883.00;1051459;28;717;-63
2022/07/20 02:22:03;;;;;;;;;;;;;;;27.13;45.65;100879.41;1051819;28;673;-65
2022/07/20 02:22:53;;;;;;;;;;;;;;;27.13;45.62;100873.94;1051373;28;784;-65
2022/07/20 02:23:44;;;;;;;;;;;;;;;27.14;45.57;100875.63;1051637;28;721;-62
2022/07/20 02:24:34;;;;;;;;;;;;;;;27.11;45.61;100880.66;1051351;28;942;-63
2022/07/20 02:25:25;;;;;;;;;;;;;;;27.12;45.87;100880.47;1052019;28;701;-63
2022/07/20 02:26:15;;;;;;;;;;;;;;;27.13;46.05;100873.94;1051299;28;733;-63
2022/07/20 02:27:05;;;;;;;;;;;;;;;27.06;45.61;100894.97;1051154;28;733;-65
2022/07/20 02:27:56;;;;;;;;;;;;;;;27.04;45.31;100890.78;1052352;28;886;-64
2022/07/20 02:28:46;;;;;;;;;;;;;;;26.99;45.55;100887.81;1052104;28;749;-64
2022/07/20 02:29:37;;;;;;;;;;;;;;;26.99;45.59;100885.91;1051020;28;1582;-64
2022/07/20 02:30:27;;;;;;;;;;;;;;;27.06;45.51;100883.19;1052639;28;630;-65
2022/07/20 02:31:18;;;;;;;;;;;;;;;27.08;45.68;100894.75;1051680;28;685;-64
2022/07/20 02:32:08;;;;;;;;;;;;;;;27.08;45.25;100898.34;1052119;28;677;-64
2022/07/20 02:33:01;;;;;;;;;;;;;;;27.08;44.96;100898.34;1051621;28;709;-64
2022/07/20 02:33:51;;;;;;;;;;;;;;;27.07;45.13;100891.19;1051725;28;664;-64
2022/07/20 02:34:41;;;;;;;;;;;;;;;27.08;45.29;100895.59;1052616;28;629;-64
2022/07/20 02:35:32;;;;;;;;;;;;;;;27.06;44.64;100900.44;1052580;28;650;-64
2022/07/20 02:36:22;;;;;;;;;;;;;;;26.96;44.99;100900.84;1051651;28;666;-64
2022/07/20 02:37:13;;;;;;;;;;;;;;;26.96;45.28;100900.00;1052759;28;731;-64
2022/07/20 02:38:03;;;;;;;;;;;;;;;26.89;44.57;100901.81;1051831;28;651;-64
2022/07/20 02:38:53;;;;;;;;;;;;;;;26.92;45.08;100893.22;1051880;28;677;-64
2022/07/20 02:39:44;;;;;;;;;;;;;;;26.46;41.71;100890.28;1051752;28;690;-64
2022/07/20 02:40:34;;;;;;;;;;;;;;;26.44;45.07;100903.31;1052572;28;693;-64
2022/07/20 02:41:25;;;;;;;;;;;;;;;26.56;44.63;100904.41;1052719;28;666;-64
2022/07/20 02:42:15;;;;;;;;;;;;;;;26.69;44.18;100904.50;1052418;28;1371;-64
2022/07/20 02:43:06;;;;;;;;;;;;;;;26.78;44.29;100892.31;1051602;28;721;-64
2022/07/20 02:43:56;;;;;;;;;;;;;;;26.72;43.79;100892.28;1051090;28;1563;-63
2022/07/20 02:44:46;;;;;;;;;;;;;;;26.57;44.95;100897.91;1051458;28;803;-64
2022/07/20 02:45:37;;;;;;;;;;;;;;;26.56;43.24;100899.78;1051077;28;722;-64
2022/07/20 02:46:27;;;;;;;;;;;;;;;26.38;44.61;100898.63;1051425;28;631;-64
2022/07/20 02:47:18;;;;;;;;;;;;;;;26.46;43.04;100888.41;1051494;28;702;-64
2022/07/20 02:48:08;;;;;;;;;;;;;;;26.57;44.63;100893.28;1051283;28;638;-64
2022/07/20 02:48:58;;;;;;;;;;;;;;;26.02;41.63;100883.25;1051537;28;721;-64
2022/07/20 02:49:49;;;;;;;;;;;;;;;26.13;44.17;100901.00;1051123;28;666;-64
2022/07/20 02:50:41;;;;;;;;;;;;;;;26.33;43.17;100898.41;1051249;28;1152;-64
2022/07/20 02:51:31;;;;;;;;;;;;;;;26.35;44.58;100896.31;1051118;28;667;-64
2022/07/20 02:52:21;;;;;;;;;;;;;;;26.45;44.22;100883.13;1051586;28;705;-64
2022/07/20 02:53:12;;;;;;;;;;;;;;;26.30;41.58;100894.19;1047238;28;973;-64
2022/07/20 02:54:02;;;;;;;;;;;;;;;26.24;44.63;100894.94;1048551;28;713;-64
2022/07/20 02:54:53;;;;;;;;;;;;;;;26.23;44.12;100888.66;1052596;28;728;-64
2022/07/20 02:55:43;;;;;;;;;;;;;;;26.19;43.90;100889.25;1051136;28;714;-64
2022/07/20 02:56:34;;;;;;;;;;;;;;;26.17;42.73;100885.84;1051148;28;720;-64
2022/07/20 02:57:24;;;;;;;;;;;;;;;25.83;42.28;100887.50;1051134;28;626;-65
2022/07/20 02:58:14;;;;;;;;;;;;;;;25.86;42.61;100887.13;1051423;28;725;-64
2022/07/20 02:59:05;;;;;;;;;;;;;;;25.80;42.65;100887.91;1047513;28;1990;-65
2022/07/20 02:59:55;;;;;;;;;;;;;;;25.76;43.87;100900.28;1045509;28;669;-64
2022/07/20 03:00:46;;;;;;;;;;;;;;;25.59;41.75;100901.56;1048371;28;650;-64
2022/07/20 03:01:36;;;;;;;;;;;;;;;25.79;44.41;100896.31;1047579;28;642;-64
2022/07/20 03:02:27;;;;;;;;;;;;;;;25.72;43.22;100889.94;1047914;28;740;-64
2022/07/20 03:03:17;;;;;;;;;;;;;;;25.66;43.26;100891.56;1047518;28;552;-64
2022/07/20 03:04:07;;;;;;;;;;;;;;;25.75;42.96;100901.31;1047790;28;716;-64
2022/07/20 03:04:58;;;;;;;;;;;;;;;25.82;44.29;100907.66;1047433;28;685;-64
2022/07/20 03:05:48;;;;;;;;;;;;;;;25.76;43.59;100913.94;1047488;28;666;-65
2022/07/20 03:06:39;;;;;;;;;;;;;;;25.29;42.45;100916.38;1047925;28;681;-65
2022/07/20 03:07:29;;;;;;;;;;;;;;;25.24;43.11;100914.25;1047375;28;1111;-64
2022/07/20 03:08:20;;;;;;;;;;;;;;;25.43;43.62;100912.75;1047495;28;666;-64
2022/07/20 03:09:10;;;;;;;;;;;;;;;25.59;44.28;100902.41;1047468;28;681;-64
2022/07/20 03:10:00;;;;;;;;;;;;;;;25.64;43.22;100909.19;1047437;28;701;-64
2022/07/20 03:10:51;;;;;;;;;;;;;;;25.79;43.89;100908.09;1047403;28;668;-64
2022/07/20 03:11:41;;;;;;;;;;;;;;;25.88;42.30;100911.50;1047590;28;654;-64
2022/07/20 03:12:32;;;;;;;;;;;;;;;25.73;43.97;100914.31;1047558;28;643;-64
2022/07/20 03:13:22;;;;;;;;;;;;;;;25.41;44.92;100912.94;1047601;28;611;-64
2022/07/20 03:14:12;;;;;;;;;;;;;;;25.47;45.17;100908.56;1047475;28;724;-64
2022/07/20 03:15:03;;;;;;;;;;;;;;;25.70;44.80;100908.41;1047347;28;693;-63
2022/07/20 03:15:53;;;;;;;;;;;;;;;25.55;44.06;100903.84;1052084;28;717;-64
2022/07/20 03:16:44;;;;;;;;;;;;;;;25.33;44.04;100904.03;1051621;28;611;-64
2022/07/20 03:17:34;;;;;;;;;;;;;;;25.46;45.36;100901.44;1047791;28;642;-64
2022/07/20 03:18:25;;;;;;;;;;;;;;;25.48;44.03;100902.09;1047454;28;725;-65
2022/07/20 03:19:15;;;;;;;;;;;;;;;25.63;44.34;100900.16;1047348;28;1977;-64
2022/07/20 03:20:05;;;;;;;;;;;;;;;25.39;44.88;100900.53;1047772;28;647;-66
2022/07/20 03:20:56;;;;;;;;;;;;;;;25.47;45.21;100903.97;1049198;28;649;-64
2022/07/20 03:21:47;;;;;;;;;;;;;;;25.29;45.13;100905.44;1051303;28;659;-65
2022/07/20 03:22:37;;;;;;;;;;;;;;;25.40;45.05;100914.00;1052618;28;717;-66
2022/07/20 03:23:27;;;;;;;;;;;;;;;25.28;45.35;100910.06;1048046;28;733;-64
2022/07/20 03:24:18;;;;;;;;;;;;;;;25.09;46.02;100908.81;1049711;28;1194;-64
2022/07/20 03:25:08;;;;;;;;;;;;;;;24.93;46.61;100907.13;1051956;28;693;-65
2022/07/20 03:25:59;;;;;;;;;;;;;;;25.04;47.13;100905.84;1052225;28;1379;-65
2022/07/20 03:26:49;;;;;;;;;;;;;;;25.00;46.01;100906.41;1051477;28;1684;-65
2022/07/20 03:27:40;;;;;;;;;;;;;;;25.02;46.40;100912.50;1051721;28;702;-65
2022/07/20 03:28:30;;;;;;;;;;;;;;;25.11;47.71;100914.91;1052358;28;685;-65
2022/07/20 03:29:20;;;;;;;;;;;;;;;25.26;47.04;100912.97;1052393;28;1395;-65
2022/07/20 03:30:11;;;;;;;;;;;;;;;25.58;46.69;100908.91;1052296;28;728;-66
2022/07/20 03:31:01;;;;;;;;;;;;;;;25.85;46.48;100922.81;1051064;28;681;-66
2022/07/20 03:31:52;;;;;;;;;;;;;;;25.50;46.43;100919.09;1051468;28;922;-65
2022/07/20 03:32:43;;;;;;;;;;;;;;;25.27;46.47;100922.00;1051160;28;681;-65
2022/07/20 03:33:34;;;;;;;;;;;;;;;24.88;47.09;100920.50;1051322;28;698;-66
2022/07/20 03:34:24;;;;;;;;;;;;;;;25.14;47.60;100925.44;1051083;28;627;-65
2022/07/20 03:35:14;;;;;;;;;;;;;;;25.50;47.41;100927.28;1051194;28;729;-65
2022/07/20 03:36:05;;;;;;;;;;;;;;;25.23;48.13;100929.75;1052162;28;701;-66
2022/07/20 03:36:55;;;;;;;;;;;;;;;25.48;47.23;100929.38;1051262;28;686;-66
2022/07/20 03:37:46;;;;;;;;;;;;;;;24.77;47.99;100920.13;1051338;28;724;-65
2022/07/20 03:38:36;;;;;;;;;;;;;;;24.85;48.02;100923.63;1051152;28;720;-66
2022/07/20 03:39:27;;;;;;;;;;;;;;;25.15;48.29;100931.75;1051222;28;1894;-65
2022/07/20 03:40:17;;;;;;;;;;;;;;;25.41;47.59;100928.47;1051037;28;781;-65
2022/07/20 03:41:08;;;;;;;;;;;;;;;24.87;48.05;100918.81;1051306;28;654;-65
2022/07/20 03:41:58;;;;;;;;;;;;;;;24.86;49.35;100919.84;1050866;28;972;-66
2022/07/20 03:42:48;;;;;;;;;;;;;;;24.90;49.07;100912.97;1051228;28;674;-65
2022/07/20 03:43:39;;;;;;;;;;;;;;;25.23;48.57;100924.31;1051359;28;686;-66
2022/07/20 03:44:29;;;;;;;;;;;;;;;25.38;48.16;100928.84;1051057;28;654;-65
2022/07/20 03:45:20;;;;;;;;;;;;;;;25.59;48.04;100931.59;1051433;28;736;-65
2022/07/20 03:46:10;;;;;;;;;;;;;;;25.79;47.79;100934.53;1047021;28;638;-65
2022/07/20 03:47:01;;;;;;;;;;;;;;;25.90;47.52;100932.13;1048467;28;654;-65
2022/07/20 03:47:51;;;;;;;;;;;;;;;25.97;47.36;100936.78;1048167;28;642;-66
2022/07/20 03:48:41;;;;;;;;;;;;;;;25.65;48.24;100933.56;1047832;28;618;-66
2022/07/20 03:49:32;;;;;;;;;;;;;;;25.07;49.45;100929.16;1051939;28;651;-66
2022/07/20 03:50:22;;;;;;;;;;;;;;;25.06;49.58;100931.03;1051038;28;642;-67
2022/07/20 03:51:13;;;;;;;;;;;;;;;25.23;49.28;100935.22;1047406;28;630;-65
2022/07/20 03:52:03;;;;;;;;;;;;;;;24.71;50.85;100942.72;1047131;28;682;-65
2022/07/20 03:52:55;;;;;;;;;;;;;;;24.44;52.17;100950.50;1047679;28;658;-66
2022/07/20 03:53:45;;;;;;;;;;;;;;;24.44;52.61;100945.06;1047576;28;679;-66
2022/07/20 03:54:36;;;;;;;;;;;;;;;24.71;51.80;100948.16;1047759;28;677;-67
2022/07/20 03:55:26;;;;;;;;;;;;;;;24.53;52.73;100954.84;1047172;28;674;-66
2022/07/20 03:56:16;;;;;;;;;;;;;;;24.65;52.03;100951.63;1047547;28;654;-66
2022/07/20 03:57:07;;;;;;;;;;;;;;;24.12;54.62;100950.81;1048561;28;792;-66
2022/07/20 03:57:57;;;;;;;;;;;;;;;24.27;54.64;100954.44;1048134;28;698;-66
2022/07/20 03:58:48;;;;;;;;;;;;;;;24.20;55.36;100956.16;1048151;28;693;-65
2022/07/20 03:59:38;;;;;;;;;;;;;;;24.58;53.43;100955.09;1051760;28;634;-65
2022/07/20 04:00:29;;;;;;;;;;;;;;;24.26;55.01;100955.47;1051192;28;665;-65
2022/07/20 04:01:19;;;;;;;;;;;;;;;24.38;54.55;100959.41;1050780;28;1694;-66
2022/07/20 04:02:09;;;;;;;;;;;;;;;24.51;54.45;100956.06;1051125;28;662;-65
2022/07/20 04:03:00;;;;;;;;;;;;;;;24.73;53.96;100957.81;1047398;28;693;-65
2022/07/20 04:03:50;;;;;;;;;;;;;;;24.86;53.59;100962.63;1048335;28;673;-65
2022/07/20 04:04:41;;;;;;;;;;;;;;;24.67;54.77;100960.47;1052322;28;690;-65
2022/07/20 04:05:31;;;;;;;;;;;;;;;24.43;55.81;100954.25;1050916;28;693;-64
2022/07/20 04:06:21;;;;;;;;;;;;;;;24.69;54.19;100951.09;1051300;28;724;-64
2022/07/20 04:07:12;;;;;;;;;;;;;;;24.88;54.25;100955.09;1050773;28;655;-65
2022/07/20 04:08:02;;;;;;;;;;;;;;;25.09;53.12;100948.88;1051054;28;680;-65
2022/07/20 04:08:53;;;;;;;;;;;;;;;24.99;54.10;100954.63;1050863;28;671;-64
2022/07/20 04:09:43;;;;;;;;;;;;;;;24.68;54.52;100952.13;1050989;28;705;-65
2022/07/20 04:10:34;;;;;;;;;;;;;;;25.08;53.04;100949.94;1051322;28;706;-64
2022/07/20 04:11:24;;;;;;;;;;;;;;;25.37;52.42;100958.03;1050912;28;654;-64
2022/07/20 04:12:15;;;;;;;;;;;;;;;24.73;56.50;100962.44;1051211;28;1170;-64
2022/07/20 04:13:05;;;;;;;;;;;;;;;24.30;56.80;100962.25;1050843;28;650;-65
2022/07/20 04:13:55;;;;;;;;;;;;;;;24.45;56.57;100968.53;1051048;28;647;-64
2022/07/20 04:14:46;;;;;;;;;;;;;;;24.76;54.53;100968.34;1051364;28;686;-64
2022/07/20 04:15:36;;;;;;;;;;;;;;;24.14;58.33;100970.53;1051001;28;694;-65
2022/07/20 04:16:27;;;;;;;;;;;;;;;24.36;57.73;100974.28;1047270;28;693;-64
2022/07/20 04:17:17;;;;;;;;;;;;;;;24.67;55.98;100968.66;1048213;28;650;-64
2022/07/20 04:18:08;;;;;;;;;;;;;;;24.84;54.93;100972.88;1052271;28;665;-65
2022/07/20 04:18:58;;;;;;;;;;;;;;;24.56;56.45;100975.41;1050818;28;729;-64
2022/07/20 04:19:48;;;;;;;;;;;;;;;24.59;56.60;100980.47;1047225;28;662;-65
2022/07/20 04:20:39;;;;;;;;;;;;;;;24.95;54.93;100982.47;1048366;28;741;-65
2022/07/20 04:21:29;;;;;;;;;;;;;;;24.35;58.16;100986.22;1052146;28;673;-65
2022/07/20 04:22:20;;;;;;;;;;;;;;;24.64;56.38;100988.09;1051224;28;662;-65
2022/07/20 04:23:13;;;;;;;;;;;;;;;24.93;55.58;100982.63;1050461;28;665;-65
2022/07/20 04:24:03;;;;;;;;;;;;;;;24.96;55.74;100982.28;1051599;28;654;-65
2022/07/20 04:24:54;;;;;;;;;;;;;;;24.66;57.46;100981.44;1051295;28;686;-65
2022/07/20 04:25:44;;;;;;;;;;;;;;;24.60;56.45;100974.00;1050974;28;624;-65
2022/07/20 04:26:35;;;;;;;;;;;;;;;24.62;56.93;100982.00;1051161;28;677;-65
2022/07/20 04:27:25;;;;;;;;;;;;;;;24.63;57.42;100983.69;1050933;28;965;-65
2022/07/20 04:28:16;;;;;;;;;;;;;;;24.83;56.82;100991.09;1051101;28;665;-65
2022/07/20 04:29:06;;;;;;;;;;;;;;;24.27;59.20;101003.47;1048482;28;1551;-66